sensor_id;sensor_type;location;lat;lon;timestamp;temperature;humidity
32524;DHT22;18965;52.242;20.886;2023-03-08T00:01:12;4.20;76.10
32524;DHT22;18965;52.242;20.886;2023-03-08T00:03:39;4.20;76.10
32524;DHT22;18965;52.242;20.886;2023-03-08T00:06:07;4.20;76.30
32524;DHT22;18965;52.242;20.886;2023-03-08T00:08:33;4.10;76.40
32524;DHT22;18965;52.242;20.886;2023-03-08T00:11:02;4.10;76.40
32524;DHT22;18965;52.242;20.886;2023-03-08T00:13:28;4.20;76.50
32524;DHT22;18965;52.242;20.886;2023-03-08T00:15:59;4.20;76.50
32524;DHT22;18965;52.242;20.886;2023-03-08T00:18:24;4.10;76.50
32524;DHT22;18965;52.242;20.886;2023-03-08T00:20:58;4.20;76.60
32524;DHT22;18965;52.242;20.886;2023-03-08T00:23:24;4.10;76.60
32524;DHT22;18965;52.242;20.886;2023-03-08T00:25:53;4.10;76.50
32524;DHT22;18965;52.242;20.886;2023-03-08T00:28:19;4.10;76.50
32524;DHT22;18965;52.242;20.886;2023-03-08T00:30:44;4.10;76.60
32524;DHT22;18965;52.242;20.886;2023-03-08T00:33:10;4.10;76.60
32524;DHT22;18965;52.242;20.886;2023-03-08T00:35:36;4.00;76.40
32524;DHT22;18965;52.242;20.886;2023-03-08T00:38:01;4.00;76.50
32524;DHT22;18965;52.242;20.886;2023-03-08T00:40:27;4.00;76.40
32524;DHT22;18965;52.242;20.886;2023-03-08T00:42:53;3.90;76.50
32524;DHT22;18965;52.242;20.886;2023-03-08T00:45:18;3.90;76.60
32524;DHT22;18965;52.242;20.886;2023-03-08T00:47:44;3.90;76.40
32524;DHT22;18965;52.242;20.886;2023-03-08T00:50:10;3.90;76.40
32524;DHT22;18965;52.242;20.886;2023-03-08T00:52:36;3.80;76.40
32524;DHT22;18965;52.242;20.886;2023-03-08T00:55:01;3.80;76.60
32524;DHT22;18965;52.242;20.886;2023-03-08T00:57:27;3.70;76.70
32524;DHT22;18965;52.242;20.886;2023-03-08T00:59:53;3.80;76.80
32524;DHT22;18965;52.242;20.886;2023-03-08T01:02:18;3.70;76.60
32524;DHT22;18965;52.242;20.886;2023-03-08T01:04:44;3.70;76.80
32524;DHT22;18965;52.242;20.886;2023-03-08T01:07:10;3.60;76.70
32524;DHT22;18965;52.242;20.886;2023-03-08T01:09:35;3.60;76.90
32524;DHT22;18965;52.242;20.886;2023-03-08T01:12:01;3.60;76.90
32524;DHT22;18965;52.242;20.886;2023-03-08T01:14:27;3.50;77.00
32524;DHT22;18965;52.242;20.886;2023-03-08T01:16:54;3.50;77.10
32524;DHT22;18965;52.242;20.886;2023-03-08T01:19:20;3.50;77.10
32524;DHT22;18965;52.242;20.886;2023-03-08T01:21:45;3.50;77.10
32524;DHT22;18965;52.242;20.886;2023-03-08T01:24:11;3.40;77.30
32524;DHT22;18965;52.242;20.886;2023-03-08T01:26:37;3.40;77.30
32524;DHT22;18965;52.242;20.886;2023-03-08T01:29:02;3.40;77.20
32524;DHT22;18965;52.242;20.886;2023-03-08T01:31:29;3.40;77.40
32524;DHT22;18965;52.242;20.886;2023-03-08T01:33:55;3.40;77.50
32524;DHT22;18965;52.242;20.886;2023-03-08T01:36:23;3.30;77.50
32524;DHT22;18965;52.242;20.886;2023-03-08T01:38:49;3.30;77.70
32524;DHT22;18965;52.242;20.886;2023-03-08T01:41:21;3.30;77.70
32524;DHT22;18965;52.242;20.886;2023-03-08T01:43:48;3.30;78.40
32524;DHT22;18965;52.242;20.886;2023-03-08T01:51:36;3.30;77.70
32524;DHT22;18965;52.242;20.886;2023-03-08T01:54:08;3.30;78.10
32524;DHT22;18965;52.242;20.886;2023-03-08T01:56:36;3.30;77.80
32524;DHT22;18965;52.242;20.886;2023-03-08T01:59:03;3.20;77.90
32524;DHT22;18965;52.242;20.886;2023-03-08T02:01:30;3.20;77.80
32524;DHT22;18965;52.242;20.886;2023-03-08T02:03:55;3.20;77.90
32524;DHT22;18965;52.242;20.886;2023-03-08T02:06:21;3.20;78.00
32524;DHT22;18965;52.242;20.886;2023-03-08T02:08:47;3.20;78.00
32524;DHT22;18965;52.242;20.886;2023-03-08T02:11:14;3.20;78.00
32524;DHT22;18965;52.242;20.886;2023-03-08T02:13:41;3.20;77.90
32524;DHT22;18965;52.242;20.886;2023-03-08T02:16:09;3.20;77.90
32524;DHT22;18965;52.242;20.886;2023-03-08T02:18:35;3.20;77.90
32524;DHT22;18965;52.242;20.886;2023-03-08T02:21:01;3.20;78.00
32524;DHT22;18965;52.242;20.886;2023-03-08T02:23:26;3.20;78.10
32524;DHT22;18965;52.242;20.886;2023-03-08T02:25:54;3.10;78.00
32524;DHT22;18965;52.242;20.886;2023-03-08T02:28:22;3.10;78.00
32524;DHT22;18965;52.242;20.886;2023-03-08T02:30:49;3.10;78.00
32524;DHT22;18965;52.242;20.886;2023-03-08T02:33:16;3.10;77.90
32524;DHT22;18965;52.242;20.886;2023-03-08T02:35:43;3.10;77.90
32524;DHT22;18965;52.242;20.886;2023-03-08T02:38:13;3.10;78.10
32524;DHT22;18965;52.242;20.886;2023-03-08T02:40:39;3.10;78.20
32524;DHT22;18965;52.242;20.886;2023-03-08T02:43:05;3.10;78.30
32524;DHT22;18965;52.242;20.886;2023-03-08T02:45:32;3.10;78.30
32524;DHT22;18965;52.242;20.886;2023-03-08T02:47:59;3.10;78.30
32524;DHT22;18965;52.242;20.886;2023-03-08T02:50:25;3.10;78.30
32524;DHT22;18965;52.242;20.886;2023-03-08T02:52:51;3.20;78.40
32524;DHT22;18965;52.242;20.886;2023-03-08T02:55:16;3.20;78.40
32524;DHT22;18965;52.242;20.886;2023-03-08T02:57:42;3.20;78.40
32524;DHT22;18965;52.242;20.886;2023-03-08T03:00:08;3.20;78.40
32524;DHT22;18965;52.242;20.886;2023-03-08T03:02:34;3.20;78.40
32524;DHT22;18965;52.242;20.886;2023-03-08T03:05:03;3.30;78.40
32524;DHT22;18965;52.242;20.886;2023-03-08T03:07:29;3.20;78.30
32524;DHT22;18965;52.242;20.886;2023-03-08T03:09:55;3.30;78.30
32524;DHT22;18965;52.242;20.886;2023-03-08T03:12:20;3.20;78.30
32524;DHT22;18965;52.242;20.886;2023-03-08T03:14:46;3.20;78.30
32524;DHT22;18965;52.242;20.886;2023-03-08T03:17:12;3.30;78.20
32524;DHT22;18965;52.242;20.886;2023-03-08T03:19:37;3.20;78.10
32524;DHT22;18965;52.242;20.886;2023-03-08T03:22:03;3.20;78.10
32524;DHT22;18965;52.242;20.886;2023-03-08T03:24:29;3.20;78.20
32524;DHT22;18965;52.242;20.886;2023-03-08T03:26:55;3.20;78.30
32524;DHT22;18965;52.242;20.886;2023-03-08T03:29:20;3.20;78.30
32524;DHT22;18965;52.242;20.886;2023-03-08T03:31:46;3.20;78.40
32524;DHT22;18965;52.242;20.886;2023-03-08T03:34:13;3.20;78.30
32524;DHT22;18965;52.242;20.886;2023-03-08T03:36:38;3.20;78.20
32524;DHT22;18965;52.242;20.886;2023-03-08T03:39:04;3.20;78.30
32524;DHT22;18965;52.242;20.886;2023-03-08T03:41:30;3.20;78.40
32524;DHT22;18965;52.242;20.886;2023-03-08T03:43:57;3.20;78.50
32524;DHT22;18965;52.242;20.886;2023-03-08T03:46:22;3.30;78.50
32524;DHT22;18965;52.242;20.886;2023-03-08T03:48:48;3.20;78.70
32524;DHT22;18965;52.242;20.886;2023-03-08T03:51:19;3.30;78.50
32524;DHT22;18965;52.242;20.886;2023-03-08T03:53:46;3.20;78.50
32524;DHT22;18965;52.242;20.886;2023-03-08T03:56:18;3.30;78.50
32524;DHT22;18965;52.242;20.886;2023-03-08T03:58:45;3.30;78.50
32524;DHT22;18965;52.242;20.886;2023-03-08T04:01:31;3.30;78.50
32524;DHT22;18965;52.242;20.886;2023-03-08T04:03:57;3.30;78.70
32524;DHT22;18965;52.242;20.886;2023-03-08T04:06:27;3.30;79.50
32524;DHT22;18965;52.242;20.886;2023-03-08T04:08:54;3.30;78.80
32524;DHT22;18965;52.242;20.886;2023-03-08T04:11:23;3.20;78.60
32524;DHT22;18965;52.242;20.886;2023-03-08T04:13:49;3.30;78.70
32524;DHT22;18965;52.242;20.886;2023-03-08T04:16:16;3.20;78.60
32524;DHT22;18965;52.242;20.886;2023-03-08T04:18:42;3.20;78.70
32524;DHT22;18965;52.242;20.886;2023-03-08T04:21:09;3.20;78.70
32524;DHT22;18965;52.242;20.886;2023-03-08T04:23:35;3.20;78.80
32524;DHT22;18965;52.242;20.886;2023-03-08T04:26:02;3.20;78.90
32524;DHT22;18965;52.242;20.886;2023-03-08T04:28:28;3.20;79.00
32524;DHT22;18965;52.242;20.886;2023-03-08T04:30:54;3.20;78.80
32524;DHT22;18965;52.242;20.886;2023-03-08T04:33:20;3.20;79.00
32524;DHT22;18965;52.242;20.886;2023-03-08T04:35:46;3.10;79.00
32524;DHT22;18965;52.242;20.886;2023-03-08T04:38:12;3.10;78.90
32524;DHT22;18965;52.242;20.886;2023-03-08T04:40:38;3.10;78.90
32524;DHT22;18965;52.242;20.886;2023-03-08T04:43:23;3.10;79.30
32524;DHT22;18965;52.242;20.886;2023-03-08T04:45:49;3.10;79.10
32524;DHT22;18965;52.242;20.886;2023-03-08T04:48:16;3.10;79.00
32524;DHT22;18965;52.242;20.886;2023-03-08T04:50:41;3.00;79.20
32524;DHT22;18965;52.242;20.886;2023-03-08T04:53:07;3.00;79.10
32524;DHT22;18965;52.242;20.886;2023-03-08T04:55:35;3.10;79.20
32524;DHT22;18965;52.242;20.886;2023-03-08T04:58:01;3.10;79.40
32524;DHT22;18965;52.242;20.886;2023-03-08T05:00:27;3.10;79.20
32524;DHT22;18965;52.242;20.886;2023-03-08T05:02:52;3.10;79.30
32524;DHT22;18965;52.242;20.886;2023-03-08T05:05:18;3.10;79.50
32524;DHT22;18965;52.242;20.886;2023-03-08T05:07:44;3.10;80.30
32524;DHT22;18965;52.242;20.886;2023-03-08T05:10:10;3.10;79.40
32524;DHT22;18965;52.242;20.886;2023-03-08T05:12:35;3.20;79.50
32524;DHT22;18965;52.242;20.886;2023-03-08T05:15:01;3.20;79.40
32524;DHT22;18965;52.242;20.886;2023-03-08T05:17:27;3.20;79.30
32524;DHT22;18965;52.242;20.886;2023-03-08T05:19:53;3.20;79.30
32524;DHT22;18965;52.242;20.886;2023-03-08T05:22:18;3.20;79.10
32524;DHT22;18965;52.242;20.886;2023-03-08T05:24:44;3.20;79.20
32524;DHT22;18965;52.242;20.886;2023-03-08T05:27:10;3.20;79.20
32524;DHT22;18965;52.242;20.886;2023-03-08T05:29:37;3.20;79.20
32524;DHT22;18965;52.242;20.886;2023-03-08T05:32:03;3.20;79.00
32524;DHT22;18965;52.242;20.886;2023-03-08T05:34:29;3.20;79.00
32524;DHT22;18965;52.242;20.886;2023-03-08T05:36:55;3.20;79.00
32524;DHT22;18965;52.242;20.886;2023-03-08T05:39:21;3.20;78.90
32524;DHT22;18965;52.242;20.886;2023-03-08T05:41:47;3.20;78.80
32524;DHT22;18965;52.242;20.886;2023-03-08T05:44:13;3.20;78.70
32524;DHT22;18965;52.242;20.886;2023-03-08T05:46:38;3.20;78.60
32524;DHT22;18965;52.242;20.886;2023-03-08T05:49:05;3.20;78.70
32524;DHT22;18965;52.242;20.886;2023-03-08T05:51:31;3.20;78.90
32524;DHT22;18965;52.242;20.886;2023-03-08T05:53:56;3.20;78.80
32524;DHT22;18965;52.242;20.886;2023-03-08T05:56:23;3.30;78.70
32524;DHT22;18965;52.242;20.886;2023-03-08T05:58:49;3.20;78.60
32524;DHT22;18965;52.242;20.886;2023-03-08T06:01:18;3.30;78.60
32524;DHT22;18965;52.242;20.886;2023-03-08T06:03:46;3.30;78.50
32524;DHT22;18965;52.242;20.886;2023-03-08T06:06:13;3.30;78.40
32524;DHT22;18965;52.242;20.886;2023-03-08T06:08:39;3.30;78.30
32524;DHT22;18965;52.242;20.886;2023-03-08T06:11:04;3.30;78.30
32524;DHT22;18965;52.242;20.886;2023-03-08T06:13:30;3.30;78.50
32524;DHT22;18965;52.242;20.886;2023-03-08T06:15:57;3.30;78.30
32524;DHT22;18965;52.242;20.886;2023-03-08T06:18:23;3.40;78.20
32524;DHT22;18965;52.242;20.886;2023-03-08T06:20:57;3.40;78.20
32524;DHT22;18965;52.242;20.886;2023-03-08T06:23:23;3.50;78.00
32524;DHT22;18965;52.242;20.886;2023-03-08T06:25:49;3.50;77.90
32524;DHT22;18965;52.242;20.886;2023-03-08T06:28:15;3.60;77.70
32524;DHT22;18965;52.242;20.886;2023-03-08T06:30:40;3.60;77.50
32524;DHT22;18965;52.242;20.886;2023-03-08T06:33:06;3.60;77.50
32524;DHT22;18965;52.242;20.886;2023-03-08T06:35:32;3.70;77.30
32524;DHT22;18965;52.242;20.886;2023-03-08T06:37:57;3.70;77.10
32524;DHT22;18965;52.242;20.886;2023-03-08T06:40:23;3.70;76.80
32524;DHT22;18965;52.242;20.886;2023-03-08T06:42:49;3.70;76.60
32524;DHT22;18965;52.242;20.886;2023-03-08T06:45:14;3.70;76.40
32524;DHT22;18965;52.242;20.886;2023-03-08T06:47:40;3.60;76.20
32524;DHT22;18965;52.242;20.886;2023-03-08T06:50:07;3.60;76.30
32524;DHT22;18965;52.242;20.886;2023-03-08T06:52:33;3.60;76.20
32524;DHT22;18965;52.242;20.886;2023-03-08T06:55:05;3.50;76.10
32524;DHT22;18965;52.242;20.886;2023-03-08T06:57:31;3.50;76.10
32524;DHT22;18965;52.242;20.886;2023-03-08T06:59:57;3.50;76.10
32524;DHT22;18965;52.242;20.886;2023-03-08T07:02:22;3.50;76.10
32524;DHT22;18965;52.242;20.886;2023-03-08T07:04:48;3.50;76.10
32524;DHT22;18965;52.242;20.886;2023-03-08T07:07:14;3.50;76.00
32524;DHT22;18965;52.242;20.886;2023-03-08T07:09:39;3.40;75.90
32524;DHT22;18965;52.242;20.886;2023-03-08T07:12:05;3.40;76.00
32524;DHT22;18965;52.242;20.886;2023-03-08T07:14:31;3.50;76.00
32524;DHT22;18965;52.242;20.886;2023-03-08T07:16:57;3.50;75.90
32524;DHT22;18965;52.242;20.886;2023-03-08T07:19:22;3.50;75.90
32524;DHT22;18965;52.242;20.886;2023-03-08T07:21:48;3.50;75.80
32524;DHT22;18965;52.242;20.886;2023-03-08T07:24:14;3.50;75.70
32524;DHT22;18965;52.242;20.886;2023-03-08T07:26:39;3.50;75.70
32524;DHT22;18965;52.242;20.886;2023-03-08T07:29:05;3.50;75.70
32524;DHT22;18965;52.242;20.886;2023-03-08T07:31:31;3.50;75.70
32524;DHT22;18965;52.242;20.886;2023-03-08T07:34:01;3.60;75.80
32524;DHT22;18965;52.242;20.886;2023-03-08T07:36:27;3.60;75.90
32524;DHT22;18965;52.242;20.886;2023-03-08T07:38:53;3.80;76.10
32524;DHT22;18965;52.242;20.886;2023-03-08T07:41:18;3.90;76.90
32524;DHT22;18965;52.242;20.886;2023-03-08T07:43:44;4.00;75.80
32524;DHT22;18965;52.242;20.886;2023-03-08T07:46:10;4.10;75.50
32524;DHT22;18965;52.242;20.886;2023-03-08T07:48:35;4.20;75.30
32524;DHT22;18965;52.242;20.886;2023-03-08T07:51:03;4.20;75.20
32524;DHT22;18965;52.242;20.886;2023-03-08T07:53:31;4.30;74.70
32524;DHT22;18965;52.242;20.886;2023-03-08T07:55:58;4.40;74.40
32524;DHT22;18965;52.242;20.886;2023-03-08T07:58:25;4.40;74.40
32524;DHT22;18965;52.242;20.886;2023-03-08T08:00:51;4.40;74.30
32524;DHT22;18965;52.242;20.886;2023-03-08T08:03:17;4.40;74.10
32524;DHT22;18965;52.242;20.886;2023-03-08T08:05:42;4.40;73.80
32524;DHT22;18965;52.242;20.886;2023-03-08T08:08:08;4.40;73.70
32524;DHT22;18965;52.242;20.886;2023-03-08T08:10:35;4.50;73.80
32524;DHT22;18965;52.242;20.886;2023-03-08T08:13:00;4.50;73.40
32524;DHT22;18965;52.242;20.886;2023-03-08T08:15:26;4.50;73.30
32524;DHT22;18965;52.242;20.886;2023-03-08T08:17:55;4.60;73.20
32524;DHT22;18965;52.242;20.886;2023-03-08T08:20:21;4.60;73.10
32524;DHT22;18965;52.242;20.886;2023-03-08T08:22:47;4.60;72.70
32524;DHT22;18965;52.242;20.886;2023-03-08T08:25:14;4.70;72.80
32524;DHT22;18965;52.242;20.886;2023-03-08T08:27:40;4.70;72.90
32524;DHT22;18965;52.242;20.886;2023-03-08T08:30:06;4.80;72.80
32524;DHT22;18965;52.242;20.886;2023-03-08T08:32:33;4.90;72.30
32524;DHT22;18965;52.242;20.886;2023-03-08T08:34:59;4.90;71.80
32524;DHT22;18965;52.242;20.886;2023-03-08T08:37:25;5.00;71.90
32524;DHT22;18965;52.242;20.886;2023-03-08T08:39:50;5.00;71.70
32524;DHT22;18965;52.242;20.886;2023-03-08T08:42:16;5.10;71.30
32524;DHT22;18965;52.242;20.886;2023-03-08T08:44:42;5.10;71.10
32524;DHT22;18965;52.242;20.886;2023-03-08T08:47:08;5.10;71.00
32524;DHT22;18965;52.242;20.886;2023-03-08T08:49:34;5.10;71.30
32524;DHT22;18965;52.242;20.886;2023-03-08T08:51:59;5.10;71.20
32524;DHT22;18965;52.242;20.886;2023-03-08T08:54:25;5.10;71.30
32524;DHT22;18965;52.242;20.886;2023-03-08T08:56:51;5.20;70.90
32524;DHT22;18965;52.242;20.886;2023-03-08T08:59:16;5.30;70.80
32524;DHT22;18965;52.242;20.886;2023-03-08T09:01:42;5.40;70.50
32524;DHT22;18965;52.242;20.886;2023-03-08T09:04:10;5.40;70.40
32524;DHT22;18965;52.242;20.886;2023-03-08T09:06:36;5.40;69.70
32524;DHT22;18965;52.242;20.886;2023-03-08T09:09:02;5.50;69.60
32524;DHT22;18965;52.242;20.886;2023-03-08T09:11:29;5.50;69.20
32524;DHT22;18965;52.242;20.886;2023-03-08T09:13:55;5.50;68.50
32524;DHT22;18965;52.242;20.886;2023-03-08T09:16:34;5.60;68.80
32524;DHT22;18965;52.242;20.886;2023-03-08T09:19:02;5.60;69.10
32524;DHT22;18965;52.242;20.886;2023-03-08T09:21:29;5.60;68.70
32524;DHT22;18965;52.242;20.886;2023-03-08T09:23:59;5.70;69.00
32524;DHT22;18965;52.242;20.886;2023-03-08T09:26:31;5.70;69.10
32524;DHT22;18965;52.242;20.886;2023-03-08T09:29:00;5.90;68.60
32524;DHT22;18965;52.242;20.886;2023-03-08T09:31:30;5.90;68.20
32524;DHT22;18965;52.242;20.886;2023-03-08T09:33:56;6.00;67.30
32524;DHT22;18965;52.242;20.886;2023-03-08T09:36:22;6.00;67.20
32524;DHT22;18965;52.242;20.886;2023-03-08T09:38:49;6.00;67.10
32524;DHT22;18965;52.242;20.886;2023-03-08T09:46:45;5.90;66.60
32524;DHT22;18965;52.242;20.886;2023-03-08T09:49:17;5.90;66.80
32524;DHT22;18965;52.242;20.886;2023-03-08T09:51:48;5.80;66.10
32524;DHT22;18965;52.242;20.886;2023-03-08T09:54:22;5.80;66.50
32524;DHT22;18965;52.242;20.886;2023-03-08T09:56:50;5.90;66.80
32524;DHT22;18965;52.242;20.886;2023-03-08T09:59:43;5.90;66.50
32524;DHT22;18965;52.242;20.886;2023-03-08T10:02:16;6.00;65.90
32524;DHT22;18965;52.242;20.886;2023-03-08T10:15:58;5.90;65.50
32524;DHT22;18965;52.242;20.886;2023-03-08T10:18:49;5.90;65.20
32524;DHT22;18965;52.242;20.886;2023-03-08T10:21:18;5.90;64.90
32524;DHT22;18965;52.242;20.886;2023-03-08T10:23:47;5.80;65.30
32524;DHT22;18965;52.242;20.886;2023-03-08T10:26:14;6.00;65.60
32524;DHT22;18965;52.242;20.886;2023-03-08T10:28:40;6.00;65.00
32524;DHT22;18965;52.242;20.886;2023-03-08T10:31:23;6.00;65.30
32524;DHT22;18965;52.242;20.886;2023-03-08T10:33:54;6.00;64.20
32524;DHT22;18965;52.242;20.886;2023-03-08T10:36:23;6.00;64.60
32524;DHT22;18965;52.242;20.886;2023-03-08T10:39:07;6.00;64.60
32524;DHT22;18965;52.242;20.886;2023-03-08T10:41:44;6.00;64.50
32524;DHT22;18965;52.242;20.886;2023-03-08T10:44:32;6.00;64.60
32524;DHT22;18965;52.242;20.886;2023-03-08T10:47:02;5.90;63.70
32524;DHT22;18965;52.242;20.886;2023-03-08T10:49:28;5.90;64.40
32524;DHT22;18965;52.242;20.886;2023-03-08T10:51:57;6.00;64.80
32524;DHT22;18965;52.242;20.886;2023-03-08T10:54:24;6.00;64.60
32524;DHT22;18965;52.242;20.886;2023-03-08T10:56:59;6.10;65.10
32524;DHT22;18965;52.242;20.886;2023-03-08T10:59:29;6.20;65.30
32524;DHT22;18965;52.242;20.886;2023-03-08T11:02:15;6.30;64.70
32524;DHT22;18965;52.242;20.886;2023-03-08T11:04:51;6.30;64.30
32524;DHT22;18965;52.242;20.886;2023-03-08T11:07:22;6.30;64.30
32524;DHT22;18965;52.242;20.886;2023-03-08T11:09:49;6.30;64.10
32524;DHT22;18965;52.242;20.886;2023-03-08T11:12:23;6.20;63.60
32524;DHT22;18965;52.242;20.886;2023-03-08T11:14:50;6.10;63.90
32524;DHT22;18965;52.242;20.886;2023-03-08T11:17:35;6.00;64.10
32524;DHT22;18965;52.242;20.886;2023-03-08T11:20:22;6.00;63.70
32524;DHT22;18965;52.242;20.886;2023-03-08T11:36:45;6.40;63.60
32524;DHT22;18965;52.242;20.886;2023-03-08T11:39:15;6.40;63.80
32524;DHT22;18965;52.242;20.886;2023-03-08T11:42:13;6.50;63.10
32524;DHT22;18965;52.242;20.886;2023-03-08T11:58:12;7.00;62.30
32524;DHT22;18965;52.242;20.886;2023-03-08T12:00:41;7.10;63.10
32524;DHT22;18965;52.242;20.886;2023-03-08T12:03:19;7.20;63.00
32524;DHT22;18965;52.242;20.886;2023-03-08T12:06:01;7.30;62.70
32524;DHT22;18965;52.242;20.886;2023-03-08T12:08:48;7.50;62.70
32524;DHT22;18965;52.242;20.886;2023-03-08T12:11:20;7.70;61.60
32524;DHT22;18965;52.242;20.886;2023-03-08T12:13:51;7.90;61.60
32524;DHT22;18965;52.242;20.886;2023-03-08T12:16:22;8.00;60.80
32524;DHT22;18965;52.242;20.886;2023-03-08T12:21:55;7.90;59.80
32524;DHT22;18965;52.242;20.886;2023-03-08T12:32:23;7.50;59.70
32524;DHT22;18965;52.242;20.886;2023-03-08T12:35:04;7.40;59.80
32524;DHT22;18965;52.242;20.886;2023-03-08T12:37:30;7.40;59.80
32524;DHT22;18965;52.242;20.886;2023-03-08T12:40:33;7.40;60.30
32524;DHT22;18965;52.242;20.886;2023-03-08T12:43:15;7.50;60.00
32524;DHT22;18965;52.242;20.886;2023-03-08T12:58:56;7.30;60.00
32524;DHT22;18965;52.242;20.886;2023-03-08T13:01:43;7.10;59.70
32524;DHT22;18965;52.242;20.886;2023-03-08T13:04:30;7.10;60.00
32524;DHT22;18965;52.242;20.886;2023-03-08T13:07:11;7.10;60.20
32524;DHT22;18965;52.242;20.886;2023-03-08T13:17:37;7.50;59.90
32524;DHT22;18965;52.242;20.886;2023-03-08T13:22:55;7.70;60.20
32524;DHT22;18965;52.242;20.886;2023-03-08T13:25:38;7.60;59.70
32524;DHT22;18965;52.242;20.886;2023-03-08T13:28:12;7.60;59.60
32524;DHT22;18965;52.242;20.886;2023-03-08T13:30:51;7.60;59.70
32524;DHT22;18965;52.242;20.886;2023-03-08T13:33:29;7.60;60.00
32524;DHT22;18965;52.242;20.886;2023-03-08T13:36:05;7.70;60.30
32524;DHT22;18965;52.242;20.886;2023-03-08T13:38:36;7.80;59.90
32524;DHT22;18965;52.242;20.886;2023-03-08T13:41:03;7.80;59.60
32524;DHT22;18965;52.242;20.886;2023-03-08T13:43:30;7.90;59.50
32524;DHT22;18965;52.242;20.886;2023-03-08T13:45:59;7.90;58.80
32524;DHT22;18965;52.242;20.886;2023-03-08T13:48:28;8.00;58.70
32524;DHT22;18965;52.242;20.886;2023-03-08T13:50:55;8.10;59.20
32524;DHT22;18965;52.242;20.886;2023-03-08T13:53:27;8.20;57.70
32524;DHT22;18965;52.242;20.886;2023-03-08T13:55:57;8.20;58.00
32524;DHT22;18965;52.242;20.886;2023-03-08T13:58:39;8.30;58.30
32524;DHT22;18965;52.242;20.886;2023-03-08T14:01:14;8.20;58.00
32524;DHT22;18965;52.242;20.886;2023-03-08T14:03:41;8.20;58.00
32524;DHT22;18965;52.242;20.886;2023-03-08T14:06:28;8.10;57.80
32524;DHT22;18965;52.242;20.886;2023-03-08T14:08:54;8.10;58.00
32524;DHT22;18965;52.242;20.886;2023-03-08T14:11:32;8.00;58.40
32524;DHT22;18965;52.242;20.886;2023-03-08T14:14:00;8.00;58.30
32524;DHT22;18965;52.242;20.886;2023-03-08T14:16:32;7.90;58.30
32524;DHT22;18965;52.242;20.886;2023-03-08T14:19:07;7.90;58.50
32524;DHT22;18965;52.242;20.886;2023-03-08T14:21:34;7.90;58.40
32524;DHT22;18965;52.242;20.886;2023-03-08T14:24:01;7.80;58.20
32524;DHT22;18965;52.242;20.886;2023-03-08T14:26:40;7.80;58.10
32524;DHT22;18965;52.242;20.886;2023-03-08T14:29:24;7.70;58.20
32524;DHT22;18965;52.242;20.886;2023-03-08T14:32:03;7.70;58.30
32524;DHT22;18965;52.242;20.886;2023-03-08T14:34:36;7.60;58.40
32524;DHT22;18965;52.242;20.886;2023-03-08T14:39:38;7.40;58.60
32524;DHT22;18965;52.242;20.886;2023-03-08T14:44:57;7.30;58.30
32524;DHT22;18965;52.242;20.886;2023-03-08T14:49:58;7.20;58.20
32524;DHT22;18965;52.242;20.886;2023-03-08T14:52:26;7.20;58.60
32524;DHT22;18965;52.242;20.886;2023-03-08T14:54:53;7.20;58.70
32524;DHT22;18965;52.242;20.886;2023-03-08T14:57:29;7.10;58.70
32524;DHT22;18965;52.242;20.886;2023-03-08T15:00:06;7.10;58.70
32524;DHT22;18965;52.242;20.886;2023-03-08T15:03:11;7.10;59.00
32524;DHT22;18965;52.242;20.886;2023-03-08T15:05:37;7.10;59.10
32524;DHT22;18965;52.242;20.886;2023-03-08T15:08:07;7.00;59.30
32524;DHT22;18965;52.242;20.886;2023-03-08T15:10:36;7.00;59.60
32524;DHT22;18965;52.242;20.886;2023-03-08T15:13:03;7.00;59.70
32524;DHT22;18965;52.242;20.886;2023-03-08T15:15:29;7.00;59.90
32524;DHT22;18965;52.242;20.886;2023-03-08T15:17:54;7.00;59.90
32524;DHT22;18965;52.242;20.886;2023-03-08T15:20:20;6.90;60.00
32524;DHT22;18965;52.242;20.886;2023-03-08T15:22:49;6.90;60.20
32524;DHT22;18965;52.242;20.886;2023-03-08T15:25:29;6.90;60.40
32524;DHT22;18965;52.242;20.886;2023-03-08T15:27:55;6.90;60.40
32524;DHT22;18965;52.242;20.886;2023-03-08T15:30:24;6.90;60.40
32524;DHT22;18965;52.242;20.886;2023-03-08T15:32:50;6.90;60.50
32524;DHT22;18965;52.242;20.886;2023-03-08T15:35:16;6.90;60.70
32524;DHT22;18965;52.242;20.886;2023-03-08T15:37:43;6.90;60.80
32524;DHT22;18965;52.242;20.886;2023-03-08T15:40:29;6.80;60.80
32524;DHT22;18965;52.242;20.886;2023-03-08T15:42:55;6.80;61.00
32524;DHT22;18965;52.242;20.886;2023-03-08T15:45:21;6.80;61.00
32524;DHT22;18965;52.242;20.886;2023-03-08T15:50:22;6.70;60.90
32524;DHT22;18965;52.242;20.886;2023-03-08T15:52:48;6.70;61.20
32524;DHT22;18965;52.242;20.886;2023-03-08T15:55:14;6.70;61.40
32524;DHT22;18965;52.242;20.886;2023-03-08T15:57:40;6.70;61.40
32524;DHT22;18965;52.242;20.886;2023-03-08T16:00:10;6.70;61.60
32524;DHT22;18965;52.242;20.886;2023-03-08T16:02:37;6.60;61.50
32524;DHT22;18965;52.242;20.886;2023-03-08T16:05:05;6.60;61.60
32524;DHT22;18965;52.242;20.886;2023-03-08T16:07:31;6.60;61.50
32524;DHT22;18965;52.242;20.886;2023-03-08T16:09:56;6.60;61.60
32524;DHT22;18965;52.242;20.886;2023-03-08T16:12:22;6.50;61.60
32524;DHT22;18965;52.242;20.886;2023-03-08T16:14:49;6.40;61.70
32524;DHT22;18965;52.242;20.886;2023-03-08T16:17:16;6.40;61.80
32524;DHT22;18965;52.242;20.886;2023-03-08T16:19:42;6.40;61.20
32524;DHT22;18965;52.242;20.886;2023-03-08T16:22:08;6.40;62.00
32524;DHT22;18965;52.242;20.886;2023-03-08T16:24:34;6.30;61.90
32524;DHT22;18965;52.242;20.886;2023-03-08T16:27:00;6.30;61.90
32524;DHT22;18965;52.242;20.886;2023-03-08T16:29:29;6.30;61.90
32524;DHT22;18965;52.242;20.886;2023-03-08T16:31:56;6.20;61.90
32524;DHT22;18965;52.242;20.886;2023-03-08T16:34:27;6.20;62.00
32524;DHT22;18965;52.242;20.886;2023-03-08T16:36:53;6.20;62.20
32524;DHT22;18965;52.242;20.886;2023-03-08T16:39:18;6.10;62.10
32524;DHT22;18965;52.242;20.886;2023-03-08T16:41:44;6.10;62.40
32524;DHT22;18965;52.242;20.886;2023-03-08T16:44:24;6.10;62.50
32524;DHT22;18965;52.242;20.886;2023-03-08T16:46:50;6.10;62.40
32524;DHT22;18965;52.242;20.886;2023-03-08T16:49:17;6.00;62.50
32524;DHT22;18965;52.242;20.886;2023-03-08T16:51:43;6.00;62.60
32524;DHT22;18965;52.242;20.886;2023-03-08T16:54:10;6.00;62.70
32524;DHT22;18965;52.242;20.886;2023-03-08T16:56:36;6.00;62.80
32524;DHT22;18965;52.242;20.886;2023-03-08T16:59:02;6.00;62.90
32524;DHT22;18965;52.242;20.886;2023-03-08T17:01:29;6.00;62.90
32524;DHT22;18965;52.242;20.886;2023-03-08T17:03:56;5.90;63.00
32524;DHT22;18965;52.242;20.886;2023-03-08T17:06:27;5.90;63.20
32524;DHT22;18965;52.242;20.886;2023-03-08T17:08:53;5.80;63.30
32524;DHT22;18965;52.242;20.886;2023-03-08T17:11:24;5.70;63.50
32524;DHT22;18965;52.242;20.886;2023-03-08T17:13:55;5.80;63.80